Terminal Aerodrome Forecast
Issued by NWS

Home | Current Version | Previous Version | Text Only | Print | Product List | Glossary On
Versions: 1 2 3 4 5 6 7 8 9 10 11 12 13
000
FTUS45 KGJT 211739
TAFTEX
TAF
KTEX 211739Z 2118/2218 VRB03KT P6SM SCT200
     FM212100 18008KT P6SM BKN100
     FM212300 18009KT P6SM BKN070
     FM220200 21011G29KT P6SM BKN050 WS020/22035KT
     FM220700 24010G27KT P6SM VCSH BKN060 WS020/23035KT
     FM221200 23009KT P6SM BKN045
     FM221400 21006KT P6SM SCT060=

USA.gov is the U.S. government's official web portal to all federal, state and local government web resources and services.